Ebony, Virginia
Current Conditions -  °F | °C
As of 9:16 AM on Sunday 21 Dec 2014 (Local Time) from KAVC Reporting Station
Overcast Overcast  
Wind Chill: 35°   Ceiling: 7000
Heat Index: 35°   Visibility: 10mi
Dew Point: 30°   Wind: 0mph
Humidity: 81%   Direction: NA
Pressure: 30.38"   Gusts: NA
Location:  36.58°N, 77.99°W
Report Text: KAVC 211416Z AUTO 00000KT 10SM OVC070 02/M01 A3038 RMK AO2 T00181011
Loading
Personal Weather Stations






























Interactive Weather Map New forecast layout! Learn more

10-Day Weather Forecast

Advertisements
Track Severe Weather on mobile